createdAt,value
2023-02-28T00:01:23.559Z,98670.50
2023-02-28T00:03:50.198Z,98681.09
2023-02-28T00:06:16.909Z,98689.22
2023-02-28T00:08:43.552Z,98685.44
2023-02-28T00:11:11.739Z,98683.28
2023-02-28T00:13:39.935Z,98684.47
2023-02-28T00:16:08.437Z,98683.66
2023-02-28T00:18:35.092Z,98672.03
2023-02-28T00:21:01.829Z,98666.75
2023-02-28T00:23:28.637Z,98662.06
2023-02-28T00:25:55.326Z,98664.78
2023-02-28T00:28:21.978Z,98677.91
2023-02-28T00:30:48.639Z,98674.91
2023-02-28T00:33:15.364Z,98679.09
2023-02-28T00:35:42.032Z,98688.53
2023-02-28T00:38:09.688Z,98687.91
2023-02-28T00:40:36.333Z,98688.03
2023-02-28T00:43:02.956Z,98679.28
2023-02-28T00:45:29.573Z,98680.94
2023-02-28T00:47:57.663Z,98683.84
2023-02-28T00:50:24.428Z,98684.69
2023-02-28T00:52:51.040Z,98689.81
2023-02-28T00:55:17.809Z,98679.59
2023-02-28T00:57:44.537Z,98678.91
2023-02-28T01:00:12.086Z,98674.03
2023-02-28T01:02:38.707Z,98662.25
2023-02-28T01:05:05.792Z,98667.81
2023-02-28T01:07:32.569Z,98672.59
2023-02-28T01:09:59.205Z,98663.56
2023-02-28T01:12:25.918Z,98670.59
2023-02-28T01:14:52.548Z,98674.50
2023-02-28T01:17:21.746Z,98684.06
2023-02-28T01:19:48.374Z,98675.28
2023-02-28T01:22:15.033Z,98667.44
2023-02-28T01:24:42.700Z,98660.75
2023-02-28T01:27:12.874Z,98670.22
2023-02-28T01:29:39.521Z,98659.75
2023-02-28T01:32:06.183Z,98659.59
2023-02-28T01:34:32.864Z,98651.41
2023-02-28T01:36:59.875Z,98640.97
2023-02-28T01:39:27.118Z,98646.66
2023-02-28T01:41:53.788Z,98655.41
2023-02-28T01:44:58.018Z,98655.25
2023-02-28T01:47:25.782Z,98658.31
2023-02-28T01:49:52.719Z,98652.91
2023-02-28T01:52:19.334Z,98661.63
2023-02-28T01:54:48.754Z,98673.31
2023-02-28T01:57:18.425Z,98665.47
2023-02-28T01:59:51.909Z,98655.50
2023-02-28T02:02:19.704Z,98657.47
2023-02-28T02:05:02.691Z,98644.47
2023-02-28T02:07:31.889Z,98628.13
2023-02-28T02:10:15.930Z,98641.94
2023-02-28T02:13:06.842Z,98626.34
2023-02-28T02:15:37.792Z,98631.16
2023-02-28T02:18:25.055Z,98637.81
2023-02-28T02:21:09.310Z,98634.63
2023-02-28T02:23:53.591Z,98639.16
2023-02-28T02:26:20.070Z,98640.00
2023-02-28T02:29:05.939Z,98643.03
2023-02-28T02:31:43.275Z,98637.91
2023-02-28T02:34:26.671Z,98633.56
2023-02-28T02:37:06.641Z,98631.88
2023-02-28T02:39:53.847Z,98633.78
2023-02-28T02:42:30.302Z,98632.84
2023-02-28T02:45:02.640Z,98634.75
2023-02-28T02:47:30.939Z,98646.69
2023-02-28T02:49:59.330Z,98636.97
2023-02-28T02:52:34.057Z,98638.47
2023-02-28T02:55:00.865Z,98639.28
2023-02-28T02:57:37.057Z,98642.31
2023-02-28T03:00:06.027Z,98649.66
2023-02-28T03:02:35.204Z,98653.00
2023-02-28T03:05:04.322Z,98659.16
2023-02-28T03:07:30.925Z,98659.78
2023-02-28T03:09:58.419Z,98657.09
2023-02-28T03:12:42.119Z,98656.09
2023-02-28T03:15:18.024Z,98652.78
2023-02-28T03:17:53.786Z,98661.13
2023-02-28T03:20:46.247Z,98657.44
2023-02-28T03:23:31.722Z,98660.31
2023-02-28T03:26:13.101Z,98651.69
2023-02-28T03:28:48.970Z,98657.41
2023-02-28T03:31:37.665Z,98650.22
2023-02-28T03:34:18.148Z,98660.69
2023-02-28T03:36:48.204Z,98648.72
2023-02-28T03:39:17.402Z,98644.22
2023-02-28T03:41:55.904Z,98648.00
2023-02-28T03:44:27.027Z,98648.84
2023-02-28T03:46:57.495Z,98645.16
2023-02-28T03:49:25.997Z,98647.59
2023-02-28T03:51:52.687Z,98652.09
2023-02-28T03:54:22.162Z,98654.41
2023-02-28T03:56:54.886Z,98657.34
2023-02-28T03:59:40.990Z,98654.69
2023-02-28T04:02:07.695Z,98661.03
2023-02-28T04:04:34.997Z,98653.81
2023-02-28T04:07:03.252Z,98659.19
2023-02-28T04:09:29.906Z,98666.41
2023-02-28T04:11:59.142Z,98664.22
2023-02-28T04:14:25.793Z,98665.44
2023-02-28T04:16:53.025Z,98663.06
2023-02-28T04:19:19.776Z,98661.84
2023-02-28T04:21:48.051Z,98665.25
2023-02-28T04:24:16.265Z,98650.94
2023-02-28T04:26:47.405Z,98659.09
2023-02-28T04:29:15.377Z,98673.47
2023-02-28T04:31:42.077Z,98664.88
2023-02-28T04:34:08.805Z,98667.31
2023-02-28T04:36:35.475Z,98664.72
2023-02-28T04:39:02.163Z,98672.22
2023-02-28T04:41:32.064Z,98668.59
2023-02-28T04:43:59.247Z,98674.38
2023-02-28T04:46:25.923Z,98678.53
2023-02-28T04:48:52.664Z,98681.91
2023-02-28T04:51:19.576Z,98683.00
2023-02-28T04:53:46.249Z,98680.38
2023-02-28T04:56:14.094Z,98689.72
2023-02-28T04:58:40.748Z,98692.22
2023-02-28T05:01:16.473Z,98698.25
2023-02-28T05:03:43.714Z,98692.28
2023-02-28T05:06:13.344Z,98694.88
2023-02-28T05:08:40.177Z,98703.72
2023-02-28T05:11:17.355Z,98700.56
2023-02-28T05:13:44.011Z,98708.06
2023-02-28T05:16:11.273Z,98703.94
2023-02-28T05:18:38.316Z,98717.03
2023-02-28T05:21:05.168Z,98703.50
2023-02-28T05:23:31.783Z,98718.31
2023-02-28T05:25:58.554Z,98711.19
2023-02-28T05:28:25.197Z,98719.53
2023-02-28T05:30:51.828Z,98714.09
2023-02-28T05:33:18.473Z,98713.75
2023-02-28T05:35:45.307Z,98719.50
2023-02-28T05:38:12.005Z,98720.47
2023-02-28T05:40:40.405Z,98715.00
2023-02-28T05:43:07.045Z,98718.38
2023-02-28T05:45:33.722Z,98727.41
2023-02-28T05:48:00.616Z,98728.34
2023-02-28T05:50:27.259Z,98737.22
2023-02-28T05:52:53.945Z,98733.84
2023-02-28T05:55:20.693Z,98738.81
2023-02-28T05:57:47.277Z,98748.03
2023-02-28T06:00:16.073Z,98741.97
2023-02-28T06:02:42.692Z,98751.34
2023-02-28T06:05:14.143Z,98746.69
2023-02-28T06:07:40.804Z,98744.47
2023-02-28T06:10:07.858Z,98745.31
2023-02-28T06:12:34.476Z,98741.06
2023-02-28T06:15:01.097Z,98740.84
2023-02-28T06:17:27.777Z,98744.25
2023-02-28T06:19:54.375Z,98744.94
2023-02-28T06:22:21.065Z,98742.34
2023-02-28T06:24:47.755Z,98750.16
2023-02-28T06:27:14.594Z,98755.13
2023-02-28T06:29:41.323Z,98763.72
2023-02-28T06:32:08.176Z,98757.56
2023-02-28T06:34:37.747Z,98763.31
2023-02-28T06:37:04.442Z,98771.88
2023-02-28T06:39:31.584Z,98770.72
2023-02-28T06:41:58.577Z,98773.72
2023-02-28T06:44:25.368Z,98769.97
2023-02-28T06:46:52.004Z,98783.13
2023-02-28T06:49:18.622Z,98775.72
2023-02-28T06:51:48.709Z,98778.00
2023-02-28T06:54:15.314Z,98782.50
2023-02-28T06:56:42.029Z,98783.00
2023-02-28T06:59:08.723Z,98791.06
2023-02-28T07:01:35.429Z,98794.09
2023-02-28T07:04:02.105Z,98790.84
2023-02-28T07:06:28.932Z,98796.38
2023-02-28T07:08:55.730Z,98803.06
2023-02-28T07:11:23.696Z,98807.84
2023-02-28T07:13:51.925Z,98791.53
2023-02-28T07:16:18.839Z,98800.47
2023-02-28T07:18:45.545Z,98795.31
2023-02-28T07:21:12.490Z,98793.25
2023-02-28T07:23:39.621Z,98799.16
2023-02-28T07:26:06.987Z,98797.88
2023-02-28T07:28:33.658Z,98793.06
2023-02-28T07:31:07.184Z,98789.25
2023-02-28T07:33:34.978Z,98789.59
2023-02-28T07:36:06.013Z,98784.28
2023-02-28T07:38:35.174Z,98789.25
2023-02-28T07:41:01.787Z,98778.75
2023-02-28T07:43:28.435Z,98782.00
2023-02-28T07:45:55.029Z,98782.84
2023-02-28T07:48:21.670Z,98783.91
2023-02-28T07:50:56.498Z,98777.53
2023-02-28T07:53:23.331Z,98781.53
2023-02-28T07:55:50.072Z,98773.41
2023-02-28T07:58:16.740Z,98778.88
2023-02-28T08:00:43.385Z,98769.94
2023-02-28T08:03:12.982Z,98775.19
2023-02-28T08:05:41.185Z,98764.88
2023-02-28T08:08:10.612Z,98765.13
2023-02-28T08:10:37.454Z,98761.63
2023-02-28T08:13:04.128Z,98761.63
2023-02-28T08:15:30.801Z,98763.09
2023-02-28T08:17:57.669Z,98760.16
2023-02-28T08:20:25.092Z,98761.44
2023-02-28T08:22:51.723Z,98744.44
2023-02-28T08:25:18.794Z,98754.34
2023-02-28T08:27:45.475Z,98743.91
2023-02-28T08:30:13.118Z,98755.25
2023-02-28T08:32:40.183Z,98748.28
2023-02-28T08:35:07.326Z,98746.63
2023-02-28T08:37:34.052Z,98748.09
2023-02-28T08:40:00.690Z,98748.16
2023-02-28T08:42:27.652Z,98743.38
2023-02-28T08:44:54.244Z,98746.09
2023-02-28T08:47:21.002Z,98748.78
2023-02-28T08:49:47.674Z,98739.03
2023-02-28T08:52:14.405Z,98742.31
2023-02-28T08:54:41.120Z,98745.69
2023-02-28T08:57:07.703Z,98741.81
2023-02-28T08:59:34.391Z,98746.50
2023-02-28T09:02:04.177Z,98744.41
2023-02-28T09:04:32.074Z,98740.84
2023-02-28T09:06:58.742Z,98739.56
2023-02-28T09:09:25.375Z,98744.50
2023-02-28T09:11:52.001Z,98742.25
2023-02-28T09:14:18.815Z,98734.97
2023-02-28T09:16:45.541Z,98728.16
2023-02-28T09:19:14.244Z,98734.34
2023-02-28T09:21:40.995Z,98730.00
2023-02-28T09:24:08.159Z,98731.31
2023-02-28T09:26:42.682Z,98733.81
2023-02-28T09:29:10.168Z,98737.31
2023-02-28T09:31:36.756Z,98734.78
2023-02-28T09:34:04.629Z,98742.09
2023-02-28T09:36:43.575Z,98727.19
2023-02-28T09:39:11.382Z,98730.56
2023-02-28T09:41:48.452Z,98729.63
2023-02-28T09:44:20.318Z,98729.53
2023-02-28T09:46:49.084Z,98731.66
2023-02-28T09:49:19.799Z,98728.16
2023-02-28T09:51:56.627Z,98730.38
2023-02-28T09:54:24.712Z,98726.88
2023-02-28T09:56:54.268Z,98721.88
2023-02-28T09:59:33.653Z,98727.25
2023-02-28T10:02:21.532Z,98728.59
2023-02-28T10:04:53.772Z,98722.78
2023-02-28T10:07:41.832Z,98726.44
2023-02-28T10:10:23.145Z,98723.25
2023-02-28T10:12:49.750Z,98725.09
2023-02-28T10:15:17.014Z,98724.59
2023-02-28T10:17:55.145Z,98729.44
2023-02-28T10:20:32.298Z,98719.44
2023-02-28T10:23:25.293Z,98716.47
2023-02-28T10:26:02.564Z,98717.38
2023-02-28T10:28:30.183Z,98721.38
2023-02-28T10:30:56.948Z,98722.81
2023-02-28T10:33:30.420Z,98716.59
2023-02-28T10:35:57.197Z,98712.09
2023-02-28T10:38:27.029Z,98717.13
2023-02-28T10:40:53.710Z,98715.13
2023-02-28T10:43:22.157Z,98704.25
2023-02-28T10:46:10.748Z,98702.34
2023-02-28T10:48:45.345Z,98712.94
2023-02-28T10:51:13.204Z,98707.94
2023-02-28T10:54:01.238Z,98705.59
2023-02-28T10:56:28.581Z,98707.03
2023-02-28T10:59:03.783Z,98703.06
2023-02-28T11:01:41.414Z,98694.19
2023-02-28T11:04:23.906Z,98691.72
2023-02-28T11:07:03.996Z,98696.66
2023-02-28T11:09:39.750Z,98701.56
2023-02-28T11:12:22.804Z,98695.78
2023-02-28T11:14:54.521Z,98698.38
2023-02-28T11:17:23.085Z,98697.91
2023-02-28T11:19:52.340Z,98689.16
2023-02-28T11:22:24.270Z,98693.53
2023-02-28T11:24:54.574Z,98686.34
2023-02-28T11:27:34.875Z,98680.47
2023-02-28T11:30:01.933Z,98677.88
2023-02-28T11:32:30.084Z,98675.91
2023-02-28T11:35:25.913Z,98684.47
2023-02-28T11:37:52.771Z,98675.75
2023-02-28T11:40:22.111Z,98669.03
2023-02-28T11:42:52.606Z,98673.16
2023-02-28T11:45:31.833Z,98663.72
2023-02-28T11:48:16.819Z,98669.22
2023-02-28T11:50:58.442Z,98665.72
2023-02-28T11:53:43.117Z,98659.72
2023-02-28T11:56:46.681Z,98659.50
2023-02-28T11:59:25.810Z,98655.34
2023-02-28T12:02:07.434Z,98656.03
2023-02-28T12:04:48.580Z,98654.03
2023-02-28T12:07:21.274Z,98647.91
2023-02-28T12:09:51.438Z,98651.81
2023-02-28T12:12:39.340Z,98657.06
2023-02-28T12:15:23.867Z,98654.66
2023-02-28T12:18:02.646Z,98656.06
2023-02-28T12:20:38.366Z,98656.22
2023-02-28T12:23:12.001Z,98654.19
2023-02-28T12:25:45.866Z,98663.84
2023-02-28T12:32:31.453Z,98646.25
2023-02-28T12:35:47.656Z,98655.59
2023-02-28T12:38:20.457Z,98638.66
2023-02-28T12:40:55.119Z,98648.00
2023-02-28T12:43:22.306Z,98639.53
2023-02-28T12:45:57.023Z,98630.69
2023-02-28T12:48:51.970Z,98627.50
2023-02-28T12:51:18.611Z,98633.63
2023-02-28T12:54:06.858Z,98638.41
2023-02-28T12:56:49.579Z,98625.97
2023-02-28T12:59:41.291Z,98624.69
2023-02-28T13:02:26.854Z,98614.75
2023-02-28T13:05:09.322Z,98610.88
2023-02-28T13:07:53.166Z,98618.25
2023-02-28T13:10:19.928Z,98613.41
2023-02-28T13:12:50.994Z,98619.16
2023-02-28T13:15:22.358Z,98614.16
2023-02-28T13:17:54.021Z,98612.56
2023-02-28T13:20:22.562Z,98610.78
2023-02-28T13:22:50.436Z,98604.88
2023-02-28T13:25:23.205Z,98604.59
2023-02-28T13:27:55.551Z,98595.94
2023-02-28T13:30:53.499Z,98610.25
2023-02-28T13:33:35.916Z,98605.78
2023-02-28T13:36:10.637Z,98618.75
2023-02-28T13:38:41.905Z,98602.34
2023-02-28T13:41:30.377Z,98603.66
2023-02-28T13:44:13.611Z,98601.34
2023-02-28T13:46:49.630Z,98604.94
2023-02-28T13:49:37.876Z,98609.69
2023-02-28T13:52:07.509Z,98606.84
2023-02-28T13:54:51.821Z,98608.88
2023-02-28T13:57:52.786Z,98597.66
2023-02-28T14:00:38.045Z,98594.81
2023-02-28T14:03:48.178Z,98595.22
2023-02-28T14:06:17.971Z,98590.59
2023-02-28T14:09:27.220Z,98585.59
2023-02-28T14:11:54.047Z,98593.81
2023-02-28T14:14:35.925Z,98580.00
2023-02-28T14:17:03.607Z,98581.59
2023-02-28T14:19:31.302Z,98581.88
2023-02-28T14:22:43.662Z,98578.94
2023-02-28T14:25:36.451Z,98569.16
2023-02-28T14:28:27.247Z,98577.47
2023-02-28T14:31:02.529Z,98583.75
2023-02-28T14:34:00.439Z,98576.56
2023-02-28T14:36:34.477Z,98576.16
2023-02-28T14:39:02.726Z,98570.44
2023-02-28T14:41:36.322Z,98565.72
2023-02-28T14:44:03.421Z,98565.06
2023-02-28T14:46:38.034Z,98560.81
2023-02-28T14:49:13.640Z,98563.56
2023-02-28T14:51:40.268Z,98558.00
2023-02-28T14:54:06.959Z,98558.22
2023-02-28T14:56:38.125Z,98559.41
2023-02-28T14:59:04.955Z,98557.38
2023-02-28T15:01:33.135Z,98561.72
2023-02-28T15:04:04.990Z,98555.09
2023-02-28T15:06:32.081Z,98556.88
2023-02-28T15:09:27.912Z,98551.69
2023-02-28T15:11:54.485Z,98562.25
2023-02-28T15:14:21.732Z,98557.03
2023-02-28T15:17:01.151Z,98557.41
2023-02-28T15:19:36.061Z,98561.63
2023-02-28T15:22:07.656Z,98562.16
2023-02-28T15:24:46.187Z,98553.47
2023-02-28T15:27:15.529Z,98553.28
2023-02-28T15:29:51.868Z,98556.97
2023-02-28T15:33:23.805Z,98556.31
2023-02-28T15:35:50.599Z,98560.81
2023-02-28T15:38:24.868Z,98558.19
2023-02-28T15:40:58.750Z,98562.41
2023-02-28T15:43:38.273Z,98561.34
2023-02-28T15:46:16.850Z,98570.03
2023-02-28T15:48:45.367Z,98564.25
2023-02-28T15:51:18.858Z,98567.03
2023-02-28T15:53:51.540Z,98569.22
2023-02-28T15:56:28.609Z,98561.53
2023-02-28T15:58:56.686Z,98569.28
2023-02-28T16:01:29.542Z,98567.69
2023-02-28T16:03:58.406Z,98564.38
2023-02-28T16:06:48.514Z,98567.72
2023-02-28T16:09:17.216Z,98562.72
2023-02-28T16:11:49.260Z,98559.03
2023-02-28T16:14:20.778Z,98560.06
2023-02-28T16:16:50.091Z,98560.22
2023-02-28T16:19:16.953Z,98563.47
2023-02-28T16:21:43.585Z,98569.22
2023-02-28T16:24:10.245Z,98569.38
2023-02-28T16:26:38.368Z,98566.72
2023-02-28T16:29:05.054Z,98570.97
2023-02-28T16:31:32.217Z,98570.88
2023-02-28T16:33:59.098Z,98569.22
2023-02-28T16:36:29.227Z,98570.88
2023-02-28T16:38:56.057Z,98568.84
2023-02-28T16:41:25.320Z,98573.44
2023-02-28T16:43:53.798Z,98566.66
2023-02-28T16:46:20.824Z,98562.69
2023-02-28T16:48:49.610Z,98569.06
2023-02-28T16:51:16.551Z,98568.50
2023-02-28T16:53:43.561Z,98575.31
2023-02-28T16:56:21.262Z,98578.69
2023-02-28T16:58:48.112Z,98578.44
2023-02-28T17:01:15.136Z,98581.31
2023-02-28T17:03:41.916Z,98578.50
2023-02-28T17:06:23.102Z,98586.16
2023-02-28T17:08:50.602Z,98593.09
2023-02-28T17:11:17.606Z,98587.09
2023-02-28T17:13:44.436Z,98584.22
2023-02-28T17:16:30.918Z,98592.09
2023-02-28T17:19:02.795Z,98601.16
2023-02-28T17:21:29.740Z,98595.88
2023-02-28T17:23:56.978Z,98593.75
2023-02-28T17:26:25.935Z,98603.34
2023-02-28T17:28:58.852Z,98603.56
2023-02-28T17:31:26.543Z,98608.03
2023-02-28T17:33:53.999Z,98599.53
2023-02-28T17:36:28.776Z,98602.97
2023-02-28T17:38:59.530Z,98600.50
2023-02-28T17:41:27.524Z,98612.53
2023-02-28T17:43:54.140Z,98608.56
2023-02-28T17:46:22.149Z,98611.38
2023-02-28T17:48:49.705Z,98610.38
2023-02-28T17:51:16.496Z,98616.69
2023-02-28T17:53:43.176Z,98610.59
2023-02-28T17:56:14.420Z,98615.75
2023-02-28T17:58:41.023Z,98613.81
2023-02-28T18:01:07.846Z,98606.06
2023-02-28T18:03:34.509Z,98615.00
2023-02-28T18:06:01.616Z,98615.16
2023-02-28T18:08:30.354Z,98609.72
2023-02-28T18:10:56.989Z,98605.31
2023-02-28T18:13:23.758Z,98611.22
2023-02-28T18:15:50.502Z,98609.78
2023-02-28T18:18:17.186Z,98608.97
2023-02-28T18:20:43.828Z,98612.13
2023-02-28T18:23:10.533Z,98605.81
2023-02-28T18:25:38.779Z,98600.69
2023-02-28T18:28:05.653Z,98606.59
2023-02-28T18:30:33.339Z,98604.84
2023-02-28T18:33:00.369Z,98602.75
2023-02-28T18:35:36.576Z,98596.56
2023-02-28T18:38:15.700Z,98588.47
2023-02-28T18:40:42.680Z,98591.63
2023-02-28T18:43:09.679Z,98592.28
2023-02-28T18:45:38.511Z,98595.44
2023-02-28T18:48:05.667Z,98598.75
2023-02-28T18:50:32.401Z,98594.59
2023-02-28T18:52:59.260Z,98590.31
2023-02-28T18:55:27.958Z,98591.00
2023-02-28T18:57:54.626Z,98595.13
2023-02-28T19:00:22.683Z,98604.38
2023-02-28T19:02:50.547Z,98611.84
2023-02-28T19:05:17.780Z,98603.78
2023-02-28T19:07:44.719Z,98598.38
2023-02-28T19:10:11.885Z,98597.44
2023-02-28T19:12:38.687Z,98595.94
2023-02-28T19:15:06.734Z,98603.19
2023-02-28T19:17:33.772Z,98586.69
2023-02-28T19:20:00.463Z,98592.94
2023-02-28T19:22:27.184Z,98591.34
2023-02-28T19:24:53.843Z,98589.88
2023-02-28T19:27:23.561Z,98592.72
2023-02-28T19:29:51.108Z,98589.47
2023-02-28T19:32:18.514Z,98586.31
2023-02-28T19:34:45.303Z,98589.75
2023-02-28T19:37:11.928Z,98595.84
2023-02-28T19:39:44.230Z,98588.53
2023-02-28T19:42:15.696Z,98585.75
2023-02-28T19:44:42.371Z,98593.09
2023-02-28T19:47:09.061Z,98590.09
2023-02-28T19:49:35.874Z,98592.56
2023-02-28T19:52:02.942Z,98597.91
2023-02-28T19:54:29.908Z,98589.66
2023-02-28T19:56:58.321Z,98596.63
2023-02-28T19:59:36.032Z,98602.44
2023-02-28T20:02:05.913Z,98609.50
2023-02-28T20:04:32.620Z,98603.66
2023-02-28T20:06:59.340Z,98595.63
2023-02-28T20:09:29.876Z,98600.72
2023-02-28T20:11:59.411Z,98599.56
2023-02-28T20:14:26.542Z,98606.94
2023-02-28T20:16:53.265Z,98609.00
2023-02-28T20:19:19.885Z,98604.09
2023-02-28T20:21:46.821Z,98609.81
2023-02-28T20:24:13.686Z,98608.72
2023-02-28T20:26:40.869Z,98609.91
2023-02-28T20:29:07.813Z,98615.69
2023-02-28T20:31:34.851Z,98615.56
2023-02-28T20:34:01.445Z,98617.34
2023-02-28T20:36:28.139Z,98618.06
2023-02-28T20:38:54.896Z,98610.28
2023-02-28T20:41:21.707Z,98613.19
2023-02-28T20:43:53.310Z,98612.84
2023-02-28T20:46:20.049Z,98600.97
2023-02-28T20:48:46.755Z,98607.50
2023-02-28T20:51:13.409Z,98606.16
2023-02-28T20:53:40.039Z,98609.91
2023-02-28T20:56:09.040Z,98610.69
2023-02-28T20:58:38.009Z,98616.19
2023-02-28T21:01:18.515Z,98618.34
2023-02-28T21:03:46.589Z,98613.81
2023-02-28T21:06:13.723Z,98622.19
2023-02-28T21:08:40.469Z,98616.63
2023-02-28T21:11:11.201Z,98620.22
2023-02-28T21:13:37.937Z,98606.50
2023-02-28T21:16:06.037Z,98606.59
2023-02-28T21:18:36.133Z,98600.16
2023-02-28T21:21:07.524Z,98599.69
2023-02-28T21:23:34.242Z,98603.34
2023-02-28T21:26:11.395Z,98604.66
2023-02-28T21:28:38.708Z,98605.94
2023-02-28T21:31:07.008Z,98610.56
2023-02-28T21:33:34.144Z,98601.56
2023-02-28T21:36:10.609Z,98599.16
2023-02-28T21:38:37.701Z,98599.66
2023-02-28T21:41:08.484Z,98608.09
2023-02-28T21:43:35.181Z,98611.78
2023-02-28T21:46:09.180Z,98600.69
2023-02-28T21:48:35.885Z,98601.59
2023-02-28T21:51:07.216Z,98608.56
2023-02-28T21:53:35.220Z,98612.53
2023-02-28T21:56:12.876Z,98608.72
2023-02-28T21:58:39.494Z,98620.66
2023-02-28T22:01:22.204Z,98622.88
2023-02-28T22:03:49.401Z,98604.63
2023-02-28T22:06:23.927Z,98608.06
2023-02-28T22:08:52.775Z,98617.69
2023-02-28T22:11:19.539Z,98613.53
2023-02-28T22:13:46.219Z,98611.84
2023-02-28T22:16:17.498Z,98616.66
2023-02-28T22:18:44.345Z,98605.91
2023-02-28T22:21:11.455Z,98608.19
2023-02-28T22:23:38.468Z,98603.25
2023-02-28T22:26:07.144Z,98614.28
2023-02-28T22:28:33.858Z,98612.13
2023-02-28T22:31:00.577Z,98612.13
2023-02-28T22:33:27.454Z,98609.34
2023-02-28T22:35:54.274Z,98620.88
2023-02-28T22:38:20.980Z,98612.94
2023-02-28T22:40:47.588Z,98623.44
2023-02-28T22:43:14.199Z,98621.91
2023-02-28T22:45:40.957Z,98630.63
2023-02-28T22:48:08.324Z,98625.56
2023-02-28T22:50:35.000Z,98611.47
2023-02-28T22:53:01.677Z,98614.50
2023-02-28T22:55:28.327Z,98621.44
2023-02-28T22:57:55.189Z,98609.69
2023-02-28T23:00:22.062Z,98600.69
2023-02-28T23:02:48.685Z,98593.78
2023-02-28T23:05:15.602Z,98596.97
2023-02-28T23:07:42.323Z,98599.94
2023-02-28T23:10:11.453Z,98592.47
2023-02-28T23:12:38.361Z,98601.44
2023-02-28T23:15:05.338Z,98594.53
2023-02-28T23:17:32.205Z,98605.13
2023-02-28T23:19:58.797Z,98595.59
2023-02-28T23:22:25.450Z,98590.59
2023-02-28T23:24:53.213Z,98594.44
2023-02-28T23:27:19.845Z,98596.19
2023-02-28T23:29:46.463Z,98594.66
2023-02-28T23:32:13.203Z,98601.66
2023-02-28T23:34:39.962Z,98600.22
2023-02-28T23:37:06.637Z,98607.34
2023-02-28T23:39:33.566Z,98598.59
2023-02-28T23:42:00.290Z,98594.97
2023-02-28T23:44:26.890Z,98592.19
2023-02-28T23:46:53.712Z,98591.72
2023-02-28T23:49:20.477Z,98591.06
2023-02-28T23:51:49.374Z,98594.97
2023-02-28T23:54:17.421Z,98607.84
2023-02-28T23:56:44.201Z,98603.25
2023-02-28T23:59:11.314Z,98600.88
